Time;durP1;ratioP1;P1;durP2;ratioP2;P2;SDS_P1;SDS_P2;PMS_P1;PMS_P2;Temp;Humidity;BMP_temperature;BMP_pressure;BME280_temperature;BME280_humidity;BME280_pressure;Samples;Min_cycle;Max_cycle;Signal;HPM_P1;HPM_P2
2021/01/22 00:00:31;;;;;;;4.13;0.70;;;9.40;90.40;;;;;;6249199;22;20015;-86
2021/01/22 00:02:57;;;;;;;2.73;0.80;;;9.40;90.50;;;;;;6249028;22;20004;-86
2021/01/22 00:05:23;;;;;;;1.97;0.60;;;9.40;90.40;;;;;;6249172;22;20427;-86
2021/01/22 00:07:49;;;;;;;3.53;0.90;;;9.40;90.70;;;;;;6248888;22;20201;-85
2021/01/22 00:10:14;;;;;;;5.20;1.47;;;9.30;91.20;;;;;;6248916;22;20011;-86
2021/01/22 00:12:40;;;;;;;4.10;0.90;;;9.40;91.60;;;;;;6248891;22;20035;-86
2021/01/22 00:15:06;;;;;;;2.73;0.87;;;9.20;91.80;;;;;;6249214;22;20016;-86
2021/01/22 00:17:32;;;;;;;4.23;0.80;;;9.20;92.20;;;;;;6249023;22;20003;-85
2021/01/22 00:19:57;;;;;;;4.77;1.10;;;9.20;92.50;;;;;;6248973;22;20031;-86
2021/01/22 00:22:23;;;;;;;4.80;0.90;;;9.20;92.70;;;;;;6248526;22;20026;-86
2021/01/22 00:24:49;;;;;;;5.17;0.97;;;9.10;92.80;;;;;;6275838;22;20004;-87
2021/01/22 00:27:14;;;;;;;3.87;0.80;;;9.10;93.30;;;;;;6248697;22;20038;-86
2021/01/22 00:29:40;;;;;;;4.60;0.93;;;9.10;93.40;;;;;;6248815;22;20091;-86
2021/01/22 00:32:05;;;;;;;2.90;0.93;;;9.00;93.30;;;;;;6248312;22;20015;-86
2021/01/22 00:34:31;;;;;;;3.57;0.83;;;8.90;93.40;;;;;;6248726;22;20007;-86
2021/01/22 00:36:57;;;;;;;3.20;0.77;;;9.00;93.50;;;;;;6248595;22;20003;-86
2021/01/22 00:39:23;;;;;;;3.17;1.03;;;9.00;93.40;;;;;;6248666;22;20438;-86
2021/01/22 00:41:48;;;;;;;2.70;1.00;;;9.00;93.40;;;;;;6248689;22;20004;-86
2021/01/22 00:44:14;;;;;;;5.90;1.03;;;8.90;93.40;;;;;;6248742;22;20028;-86
2021/01/22 00:46:39;;;;;;;3.30;0.80;;;8.90;93.30;;;;;;6249040;22;20065;-86
2021/01/22 00:49:05;;;;;;;4.07;0.93;;;9.00;93.30;;;;;;6248611;22;20004;-87
2021/01/22 00:51:31;;;;;;;2.40;0.70;;;8.90;93.30;;;;;;6275801;22;20315;-86
2021/01/22 00:53:56;;;;;;;3.37;0.77;;;9.00;93.50;;;;;;6248732;22;20442;-86
2021/01/22 00:56:22;;;;;;;4.67;0.70;;;8.90;93.50;;;;;;6248359;22;19999;-86
2021/01/22 00:58:47;;;;;;;3.03;0.83;;;8.90;93.50;;;;;;6248641;22;20015;-86
2021/01/22 01:01:13;;;;;;;5.23;1.23;;;8.90;93.50;;;;;;6248500;22;20388;-85
2021/01/22 01:03:39;;;;;;;2.07;0.60;;;8.90;93.50;;;;;;6248594;22;20000;-86
2021/01/22 01:06:04;;;;;;;2.37;0.70;;;8.90;93.50;;;;;;6276495;22;19988;-86
2021/01/22 01:08:30;;;;;;;1.97;0.70;;;8.90;93.70;;;;;;6248476;22;20011;-87
2021/01/22 01:10:56;;;;;;;3.47;0.83;;;8.90;93.50;;;;;;6247614;22;20378;-86
2021/01/22 01:13:21;;;;;;;4.73;0.80;;;8.90;93.50;;;;;;6248121;22;20034;-87
2021/01/22 01:15:47;;;;;;;5.17;0.90;;;8.90;93.20;;;;;;6248110;22;20046;-87
2021/01/22 01:18:12;;;;;;;4.53;0.97;;;8.90;93.10;;;;;;6275541;22;20095;-87
2021/01/22 01:20:38;;;;;;;3.10;0.70;;;9.00;92.90;;;;;;6247676;22;20004;-87
2021/01/22 01:23:04;;;;;;;6.83;1.30;;;9.00;92.90;;;;;;6248175;22;20014;-87
2021/01/22 01:25:29;;;;;;;5.30;0.83;;;9.00;92.90;;;;;;6275409;22;20000;-87
2021/01/22 01:27:55;;;;;;;4.67;0.80;;;9.00;92.90;;;;;;6248216;22;20000;-87
2021/01/22 01:30:20;;;;;;;6.97;1.00;;;9.00;92.70;;;;;;6247827;22;20086;-86
2021/01/22 01:32:46;;;;;;;4.80;1.20;;;9.00;92.70;;;;;;6248196;22;20014;-87
2021/01/22 01:35:12;;;;;;;7.67;1.20;;;9.10;92.40;;;;;;6248462;22;20007;-87
2021/01/22 01:37:38;;;;;;;3.27;0.70;;;9.00;92.70;;;;;;6275877;22;20015;-87
2021/01/22 01:40:04;;;;;;;2.70;0.83;;;9.10;92.60;;;;;;6275582;22;20007;-87
2021/01/22 01:42:30;;;;;;;4.67;1.23;;;9.10;92.30;;;;;;6276053;22;20082;-87
2021/01/22 01:44:55;;;;;;;4.53;0.80;;;9.10;92.20;;;;;;6250568;22;20492;-87
2021/01/22 01:47:21;;;;;;;5.73;1.13;;;9.10;92.90;;;;;;6250028;22;20008;-87
2021/01/22 01:49:46;;;;;;;2.40;0.60;;;9.00;92.30;;;;;;6249478;22;20003;-86
2021/01/22 01:52:12;;;;;;;4.30;1.30;;;8.50;91.50;;;;;;6249851;22;20004;-86
2021/01/22 01:54:38;;;;;;;4.83;1.30;;;8.00;91.40;;;;;;6277341;22;20004;-86
2021/01/22 01:57:04;;;;;;;3.70;1.10;;;7.70;91.50;;;;;;6250336;22;20056;-87
2021/01/22 01:59:30;;;;;;;3.20;1.30;;;7.50;92.20;;;;;;6276431;22;20007;-86
2021/01/22 02:02:01;;;;;;;15.20;5.60;;;7.40;92.70;;;;;;6250555;22;20012;-86
2021/01/22 02:04:26;;;;;;;21.30;6.20;;;7.30;93.20;;;;;;6250851;22;20004;-86
2021/01/22 02:06:52;;;;;;;31.33;10.57;;;7.10;92.90;;;;;;6250898;22;20062;-86
2021/01/22 02:09:18;;;;;;;20.83;6.97;;;6.90;93.00;;;;;;6249565;22;20377;-86
2021/01/22 02:11:44;;;;;;;21.17;8.03;;;6.70;93.10;;;;;;6276840;22;20000;-86
2021/01/22 02:14:10;;;;;;;10.83;5.00;;;6.60;93.00;;;;;;6276771;22;20011;-86
2021/01/22 02:16:36;;;;;;;4.60;2.73;;;6.60;92.90;;;;;;6249712;22;20061;-86
2021/01/22 02:19:05;;;;;;;5.40;3.00;;;6.40;93.10;;;;;;6249130;22;20003;-86
2021/01/22 02:21:35;;;;;;;3.05;1.73;;;6.20;93.00;;;;;;6249499;22;20004;-86
2021/01/22 02:24:05;;;;;;;3.17;1.60;;;6.00;92.70;;;;;;6249763;22;20004;-86
2021/01/22 02:26:30;;;;;;;3.03;1.30;;;5.80;91.40;;;;;;6250037;22;20023;-86
2021/01/22 02:29:01;;;;;;;8.93;3.00;;;5.60;91.70;;;;;;6249385;22;20006;-86
2021/01/22 02:31:29;;;;;;;14.27;3.97;;;5.50;92.10;;;;;;6249443;22;20004;-86
2021/01/22 02:34:01;;;;;;;6.30;1.90;;;5.50;92.00;;;;;;6249789;22;20060;-86
2021/01/22 02:36:29;;;;;;;3.10;1.30;;;5.40;92.20;;;;;;6249729;22;20004;-86
2021/01/22 02:38:57;;;;;;;4.80;1.50;;;5.30;92.10;;;;;;6276255;22;20143;-86
2021/01/22 02:41:23;;;;;;;2.40;1.20;;;5.40;92.40;;;;;;6249575;22;20004;-86
2021/01/22 02:43:51;;;;;;;4.57;2.07;;;5.30;92.10;;;;;;6249806;22;20394;-86
2021/01/22 02:46:18;;;;;;;4.63;2.13;;;5.30;92.10;;;;;;6249796;22;20397;-86
2021/01/22 02:48:45;;;;;;;10.23;4.30;;;5.30;92.60;;;;;;6249362;22;19995;-86
2021/01/22 02:51:12;;;;;;;10.47;4.13;;;5.40;92.80;;;;;;6276124;22;20430;-86
2021/01/22 02:53:38;;;;;;;11.50;4.10;;;5.30;92.20;;;;;;6249487;22;20343;-86
2021/01/22 02:56:13;;;;;;;13.30;3.90;;;5.30;92.10;;;;;;6248948;22;20000;-86
2021/01/22 02:58:52;;;;;;;7.73;2.90;;;5.40;92.30;;;;;;6249712;22;20366;-86
2021/01/22 03:01:24;;;;;;;4.30;1.97;;;5.40;92.40;;;;;;6249687;22;20509;-86
2021/01/22 03:04:04;;;;;;;3.10;1.90;;;5.40;92.30;;;;;;6276702;22;20004;-86
2021/01/22 03:06:38;;;;;;;2.20;1.60;;;5.40;91.40;;;;;;6276725;22;20003;-86
2021/01/22 03:09:06;;;;;;;2.83;1.87;;;5.40;92.20;;;;;;6248154;22;20000;-86
2021/01/22 03:11:34;;;;;;;2.30;1.70;;;5.50;92.00;;;;;;6248361;22;20031;-86
2021/01/22 03:14:03;;;;;;;2.63;1.47;;;5.50;91.70;;;;;;6276299;22;20019;-86
2021/01/22 03:16:32;;;;;;;3.30;1.77;;;5.40;91.60;;;;;;6249429;22;20015;-87
2021/01/22 03:19:02;;;;;;;2.05;1.83;;;5.40;91.50;;;;;;6248647;22;20030;-86
2021/01/22 03:21:27;;;;;;;3.33;2.33;;;5.50;91.90;;;;;;6249332;22;19995;-86
2021/01/22 03:23:53;;;;;;;2.53;1.73;;;5.60;91.70;;;;;;6276276;22;20046;-86
2021/01/22 03:26:22;;;;;;;2.50;1.80;;;5.70;92.20;;;;;;6249609;22;20057;-86
2021/01/22 03:28:47;;;;;;;2.47;1.93;;;5.70;91.00;;;;;;6248880;22;20004;-86
2021/01/22 03:31:13;;;;;;;2.63;1.77;;;5.70;91.60;;;;;;6249223;22;20543;-86
2021/01/22 03:33:39;;;;;;;2.73;1.80;;;5.80;91.50;;;;;;6249130;22;20000;-86
2021/01/22 03:36:05;;;;;;;3.40;1.83;;;5.70;91.10;;;;;;6248906;22;20004;-86
2021/01/22 03:38:32;;;;;;;2.23;1.80;;;5.70;91.40;;;;;;6248818;22;19999;-86
2021/01/22 03:40:58;;;;;;;2.70;1.77;;;5.70;91.50;;;;;;6248492;22;20061;-86
2021/01/22 03:43:23;;;;;;;2.30;1.70;;;5.60;91.00;;;;;;6276183;22;20439;-86
2021/01/22 03:45:49;;;;;;;3.10;2.00;;;5.60;91.20;;;;;;6276264;22;20003;-86
2021/01/22 03:48:14;;;;;;;3.03;2.00;;;5.50;91.30;;;;;;6248625;22;20029;-86
2021/01/22 03:50:40;;;;;;;2.93;1.90;;;5.60;91.70;;;;;;6248395;22;20050;-86
2021/01/22 03:53:06;;;;;;;3.23;2.30;;;5.60;91.20;;;;;;6249024;22;20004;-86
2021/01/22 03:55:31;;;;;;;5.33;2.47;;;5.60;91.30;;;;;;6248979;22;20091;-86
2021/01/22 03:57:57;;;;;;;3.90;2.43;;;5.70;91.00;;;;;;6248795;22;20073;-86
2021/01/22 04:00:22;;;;;;;3.70;2.70;;;5.60;90.80;;;;;;6275548;22;20006;-86
2021/01/22 04:02:48;;;;;;;4.60;2.90;;;5.50;91.00;;;;;;6248839;22;20043;-86
2021/01/22 04:05:14;;;;;;;5.53;3.53;;;5.60;91.00;;;;;;6248910;22;20049;-86
2021/01/22 04:07:39;;;;;;;5.00;3.60;;;5.60;91.00;;;;;;6248936;22;20417;-87
2021/01/22 04:10:08;;;;;;;6.70;4.00;;;5.70;90.60;;;;;;6248683;22;20054;-86
2021/01/22 04:12:35;;;;;;;6.97;4.70;;;5.70;90.80;;;;;;6248707;22;20018;-87
2021/01/22 04:15:02;;;;;;;6.27;4.70;;;5.70;90.60;;;;;;6275735;22;20007;-86
2021/01/22 04:17:28;;;;;;;6.60;4.77;;;5.80;90.80;;;;;;6248758;22;20004;-86
2021/01/22 04:19:54;;;;;;;6.80;4.97;;;5.80;90.50;;;;;;6248511;22;20008;-86
2021/01/22 04:22:19;;;;;;;6.57;5.30;;;5.80;90.50;;;;;;6249355;22;20090;-86
2021/01/22 04:24:45;;;;;;;7.00;5.10;;;5.80;90.30;;;;;;6248987;22;19999;-86
2021/01/22 04:27:10;;;;;;;9.17;5.87;;;5.80;90.40;;;;;;6249868;22;19999;-86
2021/01/22 04:29:37;;;;;;;8.73;6.07;;;5.80;90.40;;;;;;6248235;22;20004;-86
2021/01/22 04:32:03;;;;;;;7.37;5.80;;;5.80;90.10;;;;;;6248746;22;20010;-86
2021/01/22 04:34:29;;;;;;;8.27;5.80;;;5.80;90.20;;;;;;6248756;22;20003;-86
2021/01/22 04:36:55;;;;;;;8.07;5.97;;;5.70;90.30;;;;;;6248398;22;20377;-86
2021/01/22 04:39:20;;;;;;;7.93;5.43;;;5.70;90.20;;;;;;6275151;22;20330;-86
2021/01/22 04:41:46;;;;;;;9.87;6.77;;;5.60;90.10;;;;;;6275927;22;20000;-86
2021/01/22 04:44:12;;;;;;;8.63;6.20;;;5.70;90.40;;;;;;6276036;22;20070;-85
2021/01/22 04:46:38;;;;;;;9.73;7.00;;;5.70;90.00;;;;;;6275285;22;20030;-86
2021/01/22 04:49:05;;;;;;;11.37;7.37;;;5.70;90.10;;;;;;6248024;22;20026;-86
2021/01/22 04:51:33;;;;;;;13.27;8.03;;;5.70;90.40;;;;;;6248667;22;20010;-86
2021/01/22 04:54:04;;;;;;;12.57;7.93;;;5.70;90.70;;;;;;6248725;22;20015;-86
2021/01/22 04:56:35;;;;;;;12.13;8.60;;;5.80;90.30;;;;;;6248599;22;20008;-86
2021/01/22 04:59:03;;;;;;;11.57;8.07;;;5.70;90.40;;;;;;6247974;22;20003;-86
2021/01/22 05:01:30;;;;;;;11.50;8.37;;;5.80;90.70;;;;;;6248499;22;20083;-86
2021/01/22 05:03:59;;;;;;;12.10;8.00;;;5.80;90.40;;;;;;6248348;22;20222;-86
2021/01/22 05:06:24;;;;;;;12.32;8.00;;;5.80;90.70;;;;;;6248593;22;20011;-86
2021/01/22 05:08:53;;;;;;;13.73;8.00;;;5.80;90.40;;;;;;6248242;22;20004;-86
2021/01/22 05:11:19;;;;;;;9.40;7.57;;;5.80;90.50;;;;;;6248512;22;20026;-86
2021/01/22 05:13:45;;;;;;;11.83;7.47;;;5.80;90.40;;;;;;6248298;22;20012;-86
2021/01/22 05:16:16;;;;;;;10.47;7.40;;;5.80;90.80;;;;;;6248451;22;20074;-86
2021/01/22 05:18:45;;;;;;;10.83;7.53;;;5.90;90.60;;;;;;6249697;22;20028;-86
2021/01/22 05:21:12;;;;;;;9.00;6.53;;;5.90;91.10;;;;;;6250376;22;20007;-86
2021/01/22 05:23:39;;;;;;;9.10;6.27;;;6.00;90.50;;;;;;6250577;22;20321;-86
2021/01/22 05:26:07;;;;;;;10.23;6.97;;;5.90;90.20;;;;;;6250414;22;19996;-86
2021/01/22 05:28:37;;;;;;;8.67;5.90;;;5.90;90.30;;;;;;6250462;22;20060;-86
2021/01/22 05:31:04;;;;;;;9.33;7.00;;;5.90;90.50;;;;;;6250101;22;20000;-86
2021/01/22 05:33:30;;;;;;;9.37;5.80;;;5.90;90.20;;;;;;6250357;22;20073;-87
2021/01/22 05:35:55;;;;;;;8.00;5.90;;;5.90;90.70;;;;;;6277618;22;19996;-86
2021/01/22 05:38:39;;;;;;;7.93;6.00;;;5.80;90.30;;;;;;6250770;22;20011;-86
2021/01/22 05:41:08;;;;;;;11.70;6.00;;;5.90;90.40;;;;;;6276675;22;19999;-86
2021/01/22 05:43:35;;;;;;;10.38;5.50;;;5.90;91.00;;;;;;6250225;22;20392;-86
2021/01/22 05:46:01;;;;;;;7.70;5.57;;;5.80;90.40;;;;;;6250211;22;20038;-86
2021/01/22 05:48:27;;;;;;;8.97;5.73;;;5.80;90.40;;;;;;6250305;22;20054;-87
2021/01/22 05:50:55;;;;;;;7.63;5.20;;;5.90;90.60;;;;;;6276846;22;20023;-86
2021/01/22 05:54:19;;;;;;;9.20;5.60;;;5.90;90.40;;;;;;6250335;22;20380;-86
2021/01/22 06:05:07;;;;;;;7.40;5.00;;;6.00;90.40;;;;;;6008867;23;20058;-86
2021/01/22 06:08:57;;;;;;;8.37;5.43;;;6.00;90.60;;;;;;6009509;23;20014;-85
2021/01/22 06:11:51;;;;;;;;;;;5.90;91.30;;;;;;6083909;23;20021;-86
2021/01/22 06:14:37;;;;;;;7.83;5.33;;;6.00;90.90;;;;;;6094148;23;19920;-87
2021/01/22 06:17:05;;;;;;;11.23;6.50;;;5.90;90.80;;;;;;6071534;23;20011;-87
2021/01/22 06:19:36;;;;;;;9.90;5.87;;;5.90;91.00;;;;;;6104025;23;20008;-87
2021/01/22 06:22:08;;;;;;;9.87;6.07;;;6.00;90.60;;;;;;6195261;23;20008;-86
2021/01/22 06:24:34;;;;;;;9.37;6.40;;;6.00;90.90;;;;;;6287382;22;20415;-87
2021/01/22 06:27:01;;;;;;;10.00;6.00;;;6.00;91.10;;;;;;6290569;22;20026;-87
2021/01/22 06:29:29;;;;;;;10.67;6.10;;;6.00;90.60;;;;;;6289293;22;20051;-86
2021/01/22 06:31:56;;;;;;;11.43;6.30;;;6.00;90.70;;;;;;6263036;22;20004;-86
2021/01/22 06:34:24;;;;;;;11.40;6.67;;;6.00;90.60;;;;;;6263571;22;20008;-87
2021/01/22 06:36:52;;;;;;;11.57;7.00;;;6.00;90.80;;;;;;6262448;22;20087;-87
2021/01/22 06:39:19;;;;;;;10.53;6.77;;;5.90;90.50;;;;;;6261192;22;20031;-87
2021/01/22 06:41:46;;;;;;;12.00;6.73;;;5.90;90.60;;;;;;6262758;22;20010;-86
2021/01/22 06:44:12;;;;;;;13.17;7.40;;;5.90;90.50;;;;;;6262924;22;20011;-86
2021/01/22 06:46:38;;;;;;;13.90;7.23;;;5.90;90.50;;;;;;6261277;22;20082;-86
2021/01/22 06:49:05;;;;;;;12.17;6.83;;;6.00;90.60;;;;;;6288760;22;20004;-87
2021/01/22 06:51:36;;;;;;;14.97;8.67;;;6.00;90.60;;;;;;6260495;22;20003;-85
2021/01/22 06:54:11;;;;;;;12.83;7.27;;;6.00;90.40;;;;;;6262524;22;20371;-85
2021/01/22 06:56:55;;;;;;;17.67;7.77;;;6.00;90.50;;;;;;6289091;22;20010;-86
2021/01/22 06:59:24;;;;;;;12.23;6.93;;;6.00;91.00;;;;;;6261283;22;20035;-85
2021/01/22 07:01:52;;;;;;;10.82;6.43;;;5.90;90.60;;;;;;6262151;22;20004;-85
2021/01/22 07:04:32;;;;;;;12.67;6.60;;;6.00;90.90;;;;;;6261610;22;20000;-86
2021/01/22 07:07:05;;;;;;;10.20;6.53;;;6.00;90.50;;;;;;6269154;22;20154;-80
2021/01/22 07:09:45;;;;;;;10.47;6.23;;;6.00;90.50;;;;;;6280209;22;20078;-81
2021/01/22 07:12:12;;;;;;;12.90;6.37;;;6.10;90.50;;;;;;6308571;22;20007;-80
2021/01/22 07:14:43;;;;;;;13.57;7.10;;;6.10;90.40;;;;;;6308322;22;20027;-80
2021/01/22 07:17:20;;;;;;;11.40;6.30;;;6.10;90.30;;;;;;6290958;22;20004;-80
2021/01/22 07:20:00;;;;;;;11.03;6.63;;;6.00;90.50;;;;;;6276404;22;20501;-80
2021/01/22 07:22:26;;;;;;;;;;;6.10;90.50;;;;;;6277167;22;20061;-80
2021/01/22 07:24:54;;;;;;;11.67;6.17;;;6.10;90.40;;;;;;6276938;22;19926;-80
2021/01/22 07:27:20;;;;;;;12.23;6.23;;;6.10;90.70;;;;;;6276673;22;20000;-80
2021/01/22 07:30:18;;;;;;;9.60;6.00;;;6.10;90.60;;;;;;6276030;22;20007;-80
2021/01/22 07:32:48;;;;;;;9.73;5.90;;;6.10;90.60;;;;;;6192847;22;19999;-79
2021/01/22 07:35:23;;;;;;;11.05;6.03;;;6.10;90.60;;;;;;6249673;22;20338;-80
2021/01/22 07:37:50;;;;;;;10.93;5.87;;;6.10;90.30;;;;;;6276647;22;20025;-80
2021/01/22 07:40:16;;;;;;;10.37;5.80;;;6.10;90.40;;;;;;6248578;22;20369;-80
2021/01/22 07:42:43;;;;;;;11.90;6.53;;;6.20;90.30;;;;;;6276246;22;20000;-80
2021/01/22 07:45:16;;;;;;;12.13;6.70;;;6.10;90.40;;;;;;6276868;22;20330;-80
2021/01/22 07:47:46;;;;;;;11.57;6.70;;;6.10;90.50;;;;;;6249809;22;20000;-80
2021/01/22 07:50:12;;;;;;;;;;;6.20;90.50;;;;;;6276489;22;20388;-80
2021/01/22 07:52:42;;;;;;;10.97;6.60;;;6.20;90.40;;;;;;6249039;22;19899;-80
2021/01/22 07:55:17;;;;;;;;;;;6.20;90.70;;;;;;6276645;22;20338;-80
2021/01/22 07:57:44;;;;;;;10.43;6.43;;;6.20;90.50;;;;;;6276518;22;20113;-80
2021/01/22 08:00:12;;;;;;;10.83;6.07;;;6.20;90.30;;;;;;6248159;22;20503;-80
2021/01/22 08:02:37;;;;;;;10.60;5.97;;;6.20;90.10;;;;;;6276073;22;20007;-80
2021/01/22 08:05:09;;;;;;;10.83;6.07;;;6.20;90.20;;;;;;6276013;22;20377;-80
2021/01/22 08:07:39;;;;;;;12.13;6.13;;;6.20;90.30;;;;;;6275663;22;20035;-80
2021/01/22 08:10:10;;;;;;;12.57;6.17;;;6.30;90.50;;;;;;6275486;22;20003;-80
2021/01/22 08:12:37;;;;;;;11.43;6.13;;;6.30;90.10;;;;;;6248922;22;20019;-80
2021/01/22 08:15:17;;;;;;;13.63;6.23;;;6.30;90.40;;;;;;6276193;22;20076;-80
2021/01/22 08:17:47;;;;;;;;;;;6.20;90.30;;;;;;6276630;22;19996;-80
2021/01/22 08:20:15;;;;;;;11.33;5.70;;;6.20;90.20;;;;;;6275892;22;19946;-80
2021/01/22 08:22:41;;;;;;;10.27;5.80;;;6.20;90.10;;;;;;6276525;22;20159;-81
2021/01/22 08:25:07;;;;;;;11.53;6.00;;;6.20;90.20;;;;;;6249701;22;19999;-80
2021/01/22 08:27:33;;;;;;;10.87;5.83;;;6.20;90.20;;;;;;6276356;22;19999;-79
2021/01/22 08:30:00;;;;;;;13.37;6.20;;;6.20;90.30;;;;;;6248453;22;20380;-80
2021/01/22 08:32:27;;;;;;;13.13;6.37;;;6.20;90.50;;;;;;6276166;22;20386;-80
2021/01/22 08:34:53;;;;;;;14.43;6.50;;;6.20;90.40;;;;;;6276481;22;20426;-80
2021/01/22 08:37:20;;;;;;;13.70;6.23;;;6.20;90.30;;;;;;6249037;22;20042;-80
2021/01/22 08:39:59;;;;;;;11.30;5.90;;;6.20;90.40;;;;;;6275305;22;20058;-80
2021/01/22 08:42:29;;;;;;;12.97;6.27;;;6.20;90.40;;;;;;6276119;22;20003;-80
2021/01/22 08:44:57;;;;;;;13.27;6.83;;;6.10;90.50;;;;;;6275997;22;20079;-80
2021/01/22 08:47:24;;;;;;;18.07;6.40;;;6.20;90.60;;;;;;6276525;22;19996;-80
2021/01/22 08:50:00;;;;;;;11.47;6.10;;;6.20;90.40;;;;;;6275271;22;20426;-81
2021/01/22 08:52:28;;;;;;;13.43;6.43;;;6.20;90.30;;;;;;6248643;22;20011;-80
2021/01/22 08:54:59;;;;;;;16.10;7.40;;;6.20;90.60;;;;;;6249270;22;20032;-80
2021/01/22 08:57:26;;;;;;;12.20;5.97;;;6.30;90.50;;;;;;6276191;22;20034;-80
2021/01/22 08:59:59;;;;;;;13.10;6.63;;;6.30;90.40;;;;;;6275737;22;20054;-80
2021/01/22 09:02:38;;;;;;;11.70;6.20;;;6.30;90.70;;;;;;6275865;22;20524;-81
2021/01/22 09:05:09;;;;;;;11.50;6.55;;;6.30;90.40;;;;;;6276331;22;20452;-80
2021/01/22 09:07:35;;;;;;;12.67;6.40;;;6.30;90.20;;;;;;6276244;22;20004;-80
2021/01/22 09:10:01;;;;;;;12.90;6.57;;;6.30;90.40;;;;;;6275737;22;20003;-81
2021/01/22 09:12:29;;;;;;;15.47;6.60;;;6.30;90.60;;;;;;6275890;22;20010;-80
2021/01/22 09:14:56;;;;;;;14.87;7.50;;;6.30;90.40;;;;;;6276632;22;20002;-81
2021/01/22 09:17:36;;;;;;;15.63;8.20;;;6.30;90.40;;;;;;6276262;22;20026;-80
2021/01/22 09:20:22;;;;;;;17.93;8.67;;;6.30;90.30;;;;;;6275561;22;20364;-80
2021/01/22 09:22:53;;;;;;;15.47;7.33;;;6.40;90.50;;;;;;6276153;22;20023;-80
2021/01/22 09:25:23;;;;;;;12.93;7.47;;;6.40;90.40;;;;;;6249302;22;20004;-81
2021/01/22 09:27:50;;;;;;;12.83;6.67;;;6.40;90.50;;;;;;6276490;22;20078;-80
2021/01/22 09:30:23;;;;;;;14.90;8.03;;;6.40;90.40;;;;;;6248107;22;20006;-80
2021/01/22 09:32:57;;;;;;;19.33;8.40;;;6.40;89.90;;;;;;6276048;22;20369;-80
2021/01/22 09:35:30;;;;;;;19.67;8.60;;;6.40;90.30;;;;;;6275886;22;20049;-81
2021/01/22 09:37:56;;;;;;;16.67;8.27;;;6.40;90.30;;;;;;6276123;22;20027;-80
2021/01/22 09:40:23;;;;;;;14.23;7.47;;;6.30;90.00;;;;;;6275187;22;20007;-80
2021/01/22 09:42:49;;;;;;;15.57;7.77;;;6.30;89.90;;;;;;6276151;22;20052;-81
2021/01/22 09:45:16;;;;;;;13.90;7.80;;;6.30;90.00;;;;;;6248776;22;20024;-81
2021/01/22 09:47:41;;;;;;;15.43;7.37;;;6.30;90.20;;;;;;6276095;22;20000;-82
2021/01/22 09:50:09;;;;;;;18.07;7.67;;;6.30;90.10;;;;;;6275503;22;20004;-82
2021/01/22 09:52:38;;;;;;;14.00;7.07;;;6.20;90.10;;;;;;6276599;22;20357;-81
2021/01/22 09:55:17;;;;;;;12.30;7.07;;;6.20;90.10;;;;;;6276073;22;20030;-81
2021/01/22 09:57:43;;;;;;;19.23;7.30;;;6.30;90.20;;;;;;6276132;22;20046;-81
2021/01/22 10:00:11;;;;;;;14.00;6.63;;;6.30;90.00;;;;;;6276098;22;20004;-81
2021/01/22 10:02:37;;;;;;;13.43;6.20;;;6.30;90.00;;;;;;6276166;22;20007;-82
2021/01/22 10:05:04;;;;;;;17.53;7.63;;;6.40;90.10;;;;;;6277809;22;20331;-81
2021/01/22 10:07:30;;;;;;;15.03;6.53;;;6.40;90.30;;;;;;6249900;22;20015;-82
2021/01/22 10:09:56;;;;;;;13.77;6.10;;;6.50;90.40;;;;;;6277099;22;20430;-81
2021/01/22 10:12:21;;;;;;;16.00;6.73;;;6.50;90.00;;;;;;6277925;22;20031;-81
2021/01/22 10:14:48;;;;;;;12.53;6.17;;;6.40;90.00;;;;;;6278115;22;19999;-82
2021/01/22 10:17:14;;;;;;;17.20;6.13;;;6.40;90.30;;;;;;6278025;22;20007;-82
2021/01/22 10:19:39;;;;;;;14.53;6.50;;;6.40;90.00;;;;;;6276799;22;20334;-82
2021/01/22 10:22:05;;;;;;;13.77;6.77;;;6.40;90.10;;;;;;6277829;22;20036;-82
2021/01/22 10:24:31;;;;;;;14.23;6.83;;;6.50;90.00;;;;;;6278045;22;20019;-81
2021/01/22 10:26:57;;;;;;;17.30;7.13;;;6.50;89.90;;;;;;6277797;22;19995;-81
2021/01/22 10:29:23;;;;;;;16.03;6.97;;;6.50;89.70;;;;;;6276822;22;20007;-81
2021/01/22 10:31:49;;;;;;;11.17;6.30;;;6.50;89.90;;;;;;6277730;22;20191;-82
2021/01/22 10:34:15;;;;;;;15.00;6.60;;;6.50;89.90;;;;;;6278195;22;20389;-82
2021/01/22 10:36:41;;;;;;;15.10;7.20;;;6.50;90.00;;;;;;6278262;22;20057;-82
2021/01/22 10:39:07;;;;;;;13.53;7.20;;;6.60;89.70;;;;;;6277634;22;20008;-81
2021/01/22 10:41:33;;;;;;;15.73;7.03;;;6.60;89.60;;;;;;6250018;22;20393;-81
2021/01/22 10:43:59;;;;;;;15.87;7.37;;;6.50;89.30;;;;;;6277597;22;20450;-82
2021/01/22 10:46:24;;;;;;;16.37;7.30;;;6.50;89.00;;;;;;6278048;22;19995;-82
2021/01/22 10:48:50;;;;;;;17.07;8.37;;;6.50;89.60;;;;;;6277666;22;20083;-81
2021/01/22 10:51:16;;;;;;;16.53;7.33;;;6.60;90.00;;;;;;6277066;22;20000;-81
2021/01/22 10:53:42;;;;;;;17.70;7.80;;;6.50;89.70;;;;;;6249996;22;19999;-81
2021/01/22 10:56:07;;;;;;;15.93;8.10;;;6.60;89.40;;;;;;6277365;22;20007;-82
2021/01/22 10:58:33;;;;;;;15.20;7.90;;;6.60;89.40;;;;;;6277823;22;20010;-81
2021/01/22 11:00:59;;;;;;;16.87;8.23;;;6.60;89.60;;;;;;6277821;22;20434;-81
2021/01/22 11:03:27;;;;;;;17.27;8.13;;;6.60;89.20;;;;;;6277774;22;20003;-82
2021/01/22 11:05:53;;;;;;;13.73;7.97;;;6.60;88.20;;;;;;6278902;22;20007;-82
2021/01/22 11:08:18;;;;;;;16.17;8.20;;;6.60;87.80;;;;;;6279334;22;20000;-82
2021/01/22 11:10:44;;;;;;;18.00;8.30;;;6.60;87.40;;;;;;6250990;22;20028;-81
2021/01/22 11:13:10;;;;;;;16.90;8.63;;;6.50;88.10;;;;;;6276805;22;20003;-82
2021/01/22 11:15:35;;;;;;;19.17;9.40;;;6.50;88.50;;;;;;6276781;22;20007;-81
2021/01/22 11:18:01;;;;;;;18.13;8.77;;;6.60;89.00;;;;;;6277013;22;20346;-82
2021/01/22 11:20:27;;;;;;;15.77;9.37;;;6.60;88.60;;;;;;6276388;22;20430;-81
2021/01/22 11:22:53;;;;;;;16.57;8.53;;;6.60;88.60;;;;;;6276582;22;20007;-81
2021/01/22 11:25:21;;;;;;;16.40;7.67;;;6.50;86.70;;;;;;6249896;22;20004;-82
2021/01/22 11:27:48;;;;;;;12.93;6.80;;;6.50;87.50;;;;;;6249937;22;19999;-81
2021/01/22 11:30:14;;;;;;;12.93;6.43;;;6.50;87.00;;;;;;6276330;22;20071;-81
2021/01/22 11:32:40;;;;;;;13.27;6.77;;;6.50;87.00;;;;;;6276817;22;20000;-81
2021/01/22 11:35:09;;;;;;;14.37;6.73;;;6.50;87.30;;;;;;6276856;22;20034;-81
2021/01/22 11:37:36;;;;;;;16.25;7.07;;;6.60;86.90;;;;;;6277124;22;20006;-82
2021/01/22 11:40:02;;;;;;;12.73;6.93;;;6.60;87.20;;;;;;6277001;22;20010;-80
2021/01/22 11:42:28;;;;;;;16.03;6.43;;;6.60;87.60;;;;;;6250609;22;20003;-81
2021/01/22 11:44:53;;;;;;;11.40;5.67;;;6.60;87.10;;;;;;6278349;22;19996;-82
2021/01/22 11:47:19;;;;;;;12.30;6.10;;;6.50;87.00;;;;;;6277305;22;20004;-81
2021/01/22 11:49:44;;;;;;;15.67;6.00;;;6.50;87.10;;;;;;6276704;22;20418;-81
2021/01/22 11:52:10;;;;;;;16.60;5.90;;;6.50;87.30;;;;;;6278214;22;20004;-81
2021/01/22 11:54:36;;;;;;;12.17;5.80;;;6.60;85.80;;;;;;6278437;22;20427;-81
2021/01/22 11:57:02;;;;;;;13.40;6.20;;;6.50;85.60;;;;;;6278252;22;20003;-81
2021/01/22 11:59:27;;;;;;;7.90;5.03;;;6.50;85.40;;;;;;6277713;22;20457;-81
2021/01/22 12:01:53;;;;;;;10.13;5.10;;;6.60;85.80;;;;;;6277739;22;20004;-81
2021/01/22 12:04:18;;;;;;;11.20;4.83;;;6.50;85.90;;;;;;6251714;22;20373;-81
2021/01/22 12:06:44;;;;;;;11.13;5.00;;;6.60;85.20;;;;;;6278710;22;20008;-81
2021/01/22 12:09:10;;;;;;;9.90;5.07;;;6.60;85.10;;;;;;6278062;22;20031;-81
2021/01/22 12:11:35;;;;;;;9.13;5.00;;;6.60;85.40;;;;;;6251484;22;20334;-82
2021/01/22 12:14:01;;;;;;;9.03;4.90;;;6.50;85.40;;;;;;6280378;22;20004;-81
2021/01/22 12:16:27;;;;;;;14.30;5.20;;;6.50;85.60;;;;;;6251662;22;20090;-81
2021/01/22 12:18:52;;;;;;;10.73;5.40;;;6.60;85.40;;;;;;6279671;22;20000;-81
2021/01/22 12:21:18;;;;;;;14.60;5.53;;;6.60;85.40;;;;;;6278506;22;20034;-81
2021/01/22 12:23:44;;;;;;;11.93;4.83;;;6.60;86.50;;;;;;6279249;22;19996;-82
2021/01/22 12:26:11;;;;;;;11.93;4.80;;;6.60;85.20;;;;;;6280923;22;20000;-82
2021/01/22 12:28:38;;;;;;;11.67;5.00;;;6.60;85.30;;;;;;6278342;22;20330;-82
2021/01/22 12:31:04;;;;;;;10.37;5.10;;;6.60;85.50;;;;;;6276560;22;20102;-81
2021/01/22 12:33:30;;;;;;;11.80;4.83;;;6.60;85.50;;;;;;6250131;22;20011;-81
2021/01/22 12:35:56;;;;;;;7.90;5.17;;;6.70;85.80;;;;;;6277404;22;20004;-81
2021/01/22 12:38:22;;;;;;;9.23;4.57;;;6.60;86.10;;;;;;6249978;22;20004;-82
2021/01/22 12:40:47;;;;;;;13.93;5.03;;;6.80;86.30;;;;;;6276269;22;20062;-81
2021/01/22 12:43:13;;;;;;;10.70;5.20;;;6.80;86.50;;;;;;6277369;22;20322;-81
2021/01/22 12:45:39;;;;;;;11.20;4.80;;;6.80;86.10;;;;;;6277645;22;20003;-81
2021/01/22 12:48:05;;;;;;;10.40;4.60;;;6.90;84.80;;;;;;6277838;22;20452;-81
2021/01/22 12:50:31;;;;;;;11.17;4.40;;;6.90;84.80;;;;;;6275856;22;20014;-81
2021/01/22 12:52:57;;;;;;;10.60;4.30;;;6.90;83.80;;;;;;6275888;22;20004;-81
2021/01/22 12:55:23;;;;;;;7.30;3.70;;;6.90;83.80;;;;;;6277293;22;20453;-81
2021/01/22 12:57:49;;;;;;;10.53;3.80;;;6.90;82.90;;;;;;6249659;22;20003;-81
2021/01/22 13:00:15;;;;;;;6.70;3.33;;;6.90;82.30;;;;;;6250276;22;20003;-82
2021/01/22 13:02:43;;;;;;;6.67;2.80;;;6.90;82.50;;;;;;6279572;22;20007;-82
2021/01/22 13:05:12;;;;;;;8.40;3.40;;;6.90;81.80;;;;;;6279519;22;20069;-81